createdAt,value
2018-01-25T00:00:55.079Z,4.83
2018-01-25T00:02:05.177Z,4.9
2018-01-25T00:03:15.059Z,4.92
2018-01-25T00:04:25.170Z,4.84
2018-01-25T00:05:35.256Z,4.92
2018-01-25T00:06:45.351Z,4.83
2018-01-25T00:07:55.436Z,4.82
2018-01-25T00:09:05.537Z,4.95
2018-01-25T00:10:15.631Z,4.92
2018-01-25T00:11:25.780Z,4.97
2018-01-25T00:12:35.872Z,5.04
2018-01-25T00:13:45.689Z,5.05
2018-01-25T00:14:55.781Z,5.01
2018-01-25T00:16:05.897Z,5.05
2018-01-25T00:17:15.724Z,4.89
2018-01-25T00:18:25.814Z,5.04
2018-01-25T00:19:35.904Z,5
2018-01-25T00:20:45.720Z,4.9
2018-01-25T00:21:55.542Z,5.01
2018-01-25T00:23:05.644Z,5.05
2018-01-25T00:24:15.460Z,5.04
2018-01-25T00:25:25.280Z,5.12
2018-01-25T00:26:35.145Z,5.01
2018-01-25T00:27:44.705Z,5.16
2018-01-25T00:28:54.793Z,5.18
2018-01-25T00:30:04.629Z,5.13
2018-01-25T00:31:14.449Z,5.13
2018-01-25T00:32:24.272Z,5.1
2018-01-25T00:33:34.361Z,5.02
2018-01-25T00:34:44.180Z,5.15
2018-01-25T00:35:53.999Z,5.15
2018-01-25T00:37:04.093Z,5.15
2018-01-25T00:38:13.375Z,5.1
2018-01-25T00:39:23.474Z,5.18
2018-01-25T00:40:33.565Z,5.19
2018-01-25T00:41:43.385Z,5.15
2018-01-25T00:42:53.478Z,5.25
2018-01-25T00:44:03.028Z,5.31
2018-01-25T00:45:13.182Z,5.12
2018-01-25T00:46:23.269Z,5.18
2018-01-25T00:47:33.356Z,5.12
2018-01-25T00:48:42.630Z,5.12
2018-01-25T00:49:52.450Z,5.12
2018-01-25T00:51:02.267Z,5.08
2018-01-25T00:52:12.365Z,5.08
2018-01-25T00:54:32.007Z,5.01
2018-01-25T00:55:42.107Z,5.13
2018-01-25T00:56:51.930Z,5.19
2018-01-25T00:58:02.023Z,5.12
2018-01-25T00:59:11.846Z,5.1
2018-01-25T01:00:21.442Z,5.02
2018-01-25T01:01:31.535Z,5.01
2018-01-25T01:02:41.390Z,5.01
2018-01-25T01:03:51.476Z,5
2018-01-25T01:05:01.566Z,5.04
2018-01-25T01:06:11.116Z,5.01
2018-01-25T01:07:20.937Z,5.04
2018-01-25T01:08:31.022Z,5.12
2018-01-25T01:09:41.112Z,5.07
2018-01-25T01:10:51.209Z,5
2018-01-25T01:12:01.029Z,5.02
2018-01-25T01:13:10.853Z,5.02
2018-01-25T01:14:20.952Z,5.08
2018-01-25T01:15:31.038Z,5.02
2018-01-25T01:16:41.129Z,5.05
2018-01-25T01:17:51.330Z,5.18
2018-01-25T01:19:01.427Z,5
2018-01-25T01:20:10.974Z,4.98
2018-01-25T01:21:20.792Z,5.04
2018-01-25T01:22:30.662Z,5.02
2018-01-25T01:23:40.751Z,5.02
2018-01-25T01:24:50.847Z,4.98
2018-01-25T01:26:00.931Z,5
2018-01-25T01:27:11.024Z,5
2018-01-25T01:28:20.839Z,5.1
2018-01-25T01:29:30.658Z,5.1
2018-01-25T01:30:40.481Z,5.01
2018-01-25T01:31:50.301Z,5.05
2018-01-25T01:33:00.114Z,5.1
2018-01-25T01:34:09.930Z,5.05
2018-01-25T01:35:19.755Z,5.12
2018-01-25T01:36:29.843Z,5.02
2018-01-25T01:37:39.938Z,4.98
2018-01-25T01:38:50.031Z,5.01
2018-01-25T01:40:00.123Z,5
2018-01-25T01:41:10.210Z,4.95
2018-01-25T01:42:20.030Z,4.97
2018-01-25T01:43:30.113Z,4.94
2018-01-25T01:44:39.662Z,5.02
2018-01-25T01:45:49.479Z,4.95
2018-01-25T01:46:59.291Z,4.84
2018-01-25T01:48:09.382Z,4.89
2018-01-25T01:49:19.473Z,4.92
2018-01-25T01:50:29.549Z,4.84
2018-01-25T01:51:39.266Z,4.87
2018-01-25T01:52:49.345Z,4.83
2018-01-25T01:53:58.796Z,4.83
2018-01-25T01:55:08.520Z,4.82
2018-01-25T01:56:18.508Z,4.83
2018-01-25T01:57:28.490Z,4.79
2018-01-25T01:58:38.044Z,4.83
2018-01-25T01:59:48.025Z,4.75
2018-01-25T02:00:58.019Z,4.78
2018-01-25T02:02:07.745Z,4.79
2018-01-25T02:03:17.727Z,4.78
2018-01-25T02:04:27.710Z,4.71
2018-01-25T02:05:37.477Z,4.76
2018-01-25T02:06:47.208Z,4.76
2018-01-25T02:07:57.306Z,4.75
2018-01-25T02:09:07.344Z,4.76
2018-01-25T02:10:16.795Z,4.76
2018-01-25T02:11:26.513Z,4.64
2018-01-25T02:12:36.233Z,4.67
2018-01-25T02:13:46.213Z,4.64
2018-01-25T02:14:56.208Z,4.61
2018-01-25T02:16:05.935Z,4.67
2018-01-25T02:17:15.658Z,4.68
2018-01-25T02:18:25.378Z,4.57
2018-01-25T02:19:35.105Z,4.63
2018-01-25T02:20:45.095Z,4.49
2018-01-25T02:21:55.076Z,4.49
2018-01-25T02:23:05.063Z,4.52
2018-01-25T02:24:14.790Z,4.56
2018-01-25T02:25:24.774Z,4.5
2018-01-25T02:26:34.508Z,4.64
2018-01-25T02:27:44.525Z,4.67
2018-01-25T02:28:54.245Z,4.67
2018-01-25T02:30:04.229Z,4.64
2018-01-25T02:31:13.691Z,4.68
2018-01-25T02:32:23.678Z,4.64
2018-01-25T02:33:33.714Z,4.66
2018-01-25T02:34:43.169Z,4.63
2018-01-25T02:35:52.896Z,4.52
2018-01-25T02:37:02.616Z,4.5
2018-01-25T02:38:12.343Z,4.53
2018-01-25T02:39:22.334Z,4.49
2018-01-25T02:40:32.054Z,4.53
2018-01-25T02:41:42.052Z,4.52
2018-01-25T02:42:51.515Z,4.48
2018-01-25T02:44:01.512Z,4.53
2018-01-25T02:45:11.240Z,4.56
2018-01-25T02:46:21.234Z,4.61
2018-01-25T02:47:30.957Z,4.63
2018-01-25T02:48:40.947Z,4.5
2018-01-25T02:49:50.666Z,4.48
2018-01-25T02:51:00.389Z,4.52
2018-01-25T02:52:10.386Z,4.49
2018-01-25T02:53:20.114Z,4.58
2018-01-25T02:54:29.837Z,4.6
2018-01-25T02:55:39.830Z,4.5
2018-01-25T02:56:49.571Z,4.52
2018-01-25T02:57:59.293Z,4.67
2018-01-25T02:59:08.748Z,4.68
2018-01-25T03:00:18.471Z,4.63
2018-01-25T03:01:28.472Z,4.74
2018-01-25T03:02:38.573Z,4.76
2018-01-25T03:03:48.559Z,4.82
2018-01-25T03:04:58.281Z,4.76
2018-01-25T03:06:08.269Z,4.79
2018-01-25T03:07:18.048Z,4.75
2018-01-25T03:08:28.082Z,4.74
2018-01-25T03:09:37.804Z,4.56
2018-01-25T03:10:47.785Z,4.57
2018-01-25T03:11:57.764Z,4.48
2018-01-25T03:13:07.481Z,4.38
2018-01-25T03:14:17.465Z,4.53
2018-01-25T03:15:27.179Z,4.48
2018-01-25T03:16:37.162Z,4.5
2018-01-25T03:17:47.143Z,4.39
2018-01-25T03:18:57.125Z,4.32
2018-01-25T03:20:06.844Z,4.27
2018-01-25T03:21:16.871Z,4.2
2018-01-25T03:22:26.859Z,4.39
2018-01-25T03:23:36.840Z,4.39
2018-01-25T03:24:46.558Z,4.3
2018-01-25T03:25:56.545Z,4.27
2018-01-25T03:27:06.263Z,4.3
2018-01-25T03:28:15.988Z,4.31
2018-01-25T03:29:25.972Z,4.21
2018-01-25T03:30:35.694Z,4.24
2018-01-25T03:31:45.152Z,4.32
2018-01-25T03:32:54.875Z,4.39
2018-01-25T03:34:04.862Z,4.32
2018-01-25T03:35:14.583Z,4.32
2018-01-25T03:36:24.300Z,4.4
2018-01-25T03:37:34.337Z,4.4
2018-01-25T03:38:43.791Z,4.4
2018-01-25T03:39:53.778Z,4.52
2018-01-25T03:41:03.497Z,4.53
2018-01-25T03:42:13.220Z,4.52
2018-01-25T03:43:23.206Z,4.46
2018-01-25T03:44:32.926Z,4.61
2018-01-25T03:45:42.911Z,4.66
2018-01-25T03:46:52.900Z,4.61
2018-01-25T03:48:02.881Z,4.61
2018-01-25T03:49:12.597Z,4.61
2018-01-25T03:50:22.617Z,4.56
2018-01-25T03:51:32.609Z,4.5
2018-01-25T03:52:42.595Z,4.52
2018-01-25T03:53:52.616Z,4.46
2018-01-25T03:55:02.334Z,4.48
2018-01-25T03:56:11.788Z,4.46
2018-01-25T03:57:21.504Z,4.48
2018-01-25T03:58:31.491Z,4.45
2018-01-25T03:59:41.211Z,4.43
2018-01-25T04:03:29.766Z,4.48
2018-01-25T04:04:39.478Z,4.48
2018-01-25T04:05:49.227Z,4.4
2018-01-25T04:06:58.945Z,4.48
2018-01-25T04:08:08.395Z,4.39
2018-01-25T04:09:18.376Z,4.42
2018-01-25T04:10:28.096Z,4.46
2018-01-25T04:11:38.076Z,4.45
2018-01-25T04:12:48.063Z,4.36
2018-01-25T04:13:58.049Z,4.46
2018-01-25T04:15:07.773Z,4.46
2018-01-25T04:16:16.963Z,4.46
2018-01-25T04:17:26.951Z,4.4
2018-01-25T04:18:36.935Z,4.4
2018-01-25T04:19:46.650Z,4.42
2018-01-25T04:20:56.366Z,4.4
2018-01-25T04:22:05.839Z,4.45
2018-01-25T04:23:15.819Z,4.49
2018-01-25T04:24:25.801Z,4.48
2018-01-25T04:25:35.519Z,4.52
2018-01-25T04:26:44.970Z,4.57
2018-01-25T04:27:54.423Z,4.45
2018-01-25T04:29:04.144Z,4.52
2018-01-25T04:30:14.130Z,4.46
2018-01-25T04:31:24.124Z,4.5
2018-01-25T04:32:34.160Z,4.43
2018-01-25T04:33:43.613Z,4.45
2018-01-25T04:34:53.602Z,4.45
2018-01-25T04:36:03.062Z,4.42
2018-01-25T04:37:13.043Z,4.49
2018-01-25T04:38:23.128Z,4.52
2018-01-25T04:39:33.167Z,4.49
2018-01-25T04:40:43.146Z,4.5
2018-01-25T04:41:52.865Z,4.58
2018-01-25T04:43:02.855Z,4.58
2018-01-25T04:44:12.841Z,4.61
2018-01-25T04:45:22.826Z,4.64
2018-01-25T04:46:32.811Z,4.64
2018-01-25T04:47:42.796Z,4.64
2018-01-25T04:48:52.780Z,4.61
2018-01-25T04:50:02.759Z,4.68
2018-01-25T04:51:12.478Z,4.68
2018-01-25T04:52:22.454Z,4.61
2018-01-25T04:53:32.185Z,4.6
2018-01-25T04:54:41.904Z,4.75
2018-01-25T04:55:51.628Z,4.79
2018-01-25T04:57:01.089Z,4.83
2018-01-25T04:58:10.810Z,4.74
2018-01-25T04:59:20.281Z,4.74
2018-01-25T05:00:30.334Z,4.66
2018-01-25T05:01:40.315Z,4.74
2018-01-25T05:02:50.034Z,4.79
2018-01-25T05:04:00.016Z,4.95
2018-01-25T05:05:09.736Z,4.86
2018-01-25T05:06:19.722Z,4.83
2018-01-25T05:07:29.709Z,4.94
2018-01-25T05:08:39.692Z,4.98
2018-01-25T05:09:49.682Z,5.02
2018-01-25T05:10:59.397Z,5.04
2018-01-25T05:12:09.380Z,5.04
2018-01-25T05:13:18.841Z,5.12
2018-01-25T05:14:28.831Z,5.26
2018-01-25T05:15:38.814Z,5.23
2018-01-25T05:16:48.796Z,5.2
2018-01-25T05:17:58.788Z,5.22
2018-01-25T05:19:08.298Z,5.23
2018-01-25T05:20:18.287Z,5.22
2018-01-25T05:21:28.020Z,5.22
2018-01-25T05:22:38.058Z,5.23
2018-01-25T05:23:48.046Z,5.2
2018-01-25T05:24:58.034Z,5.2
2018-01-25T05:26:08.028Z,5.26
2018-01-25T05:27:18.071Z,5.26
2018-01-25T05:28:27.785Z,5.37
2018-01-25T05:29:37.567Z,5.36
2018-01-25T05:30:47.021Z,5.46
2018-01-25T05:31:57.015Z,5.37
2018-01-25T05:33:07.004Z,5.43
2018-01-25T05:34:16.992Z,5.38
2018-01-25T05:35:26.975Z,5.37
2018-01-25T05:36:36.841Z,5.41
2018-01-25T05:37:46.825Z,5.52
2018-01-25T05:38:56.816Z,5.47
2018-01-25T05:40:06.542Z,5.4
2018-01-25T05:41:15.738Z,5.38
2018-01-25T05:42:25.768Z,5.46
2018-01-25T05:43:35.752Z,5.46
2018-01-25T05:44:45.526Z,5.46
2018-01-25T05:45:55.512Z,5.43
2018-01-25T05:47:04.969Z,5.52
2018-01-25T05:48:14.691Z,5.4
2018-01-25T05:49:24.676Z,5.43
2018-01-25T05:50:34.399Z,5.49
2018-01-25T05:51:44.384Z,5.52
2018-01-25T05:52:53.845Z,5.46
2018-01-25T05:54:03.829Z,5.46
2018-01-25T05:55:13.812Z,5.37
2018-01-25T05:56:23.805Z,5.36
2018-01-25T05:57:33.783Z,5.34
2018-01-25T05:58:43.556Z,5.37
2018-01-25T05:59:53.281Z,5.34
2018-01-25T06:01:03.273Z,5.33
2018-01-25T06:02:13.003Z,5.2
2018-01-25T06:03:22.774Z,5.19
2018-01-25T06:04:32.496Z,5.29
2018-01-25T06:05:42.224Z,5.28
2018-01-25T06:06:52.210Z,5.26
2018-01-25T06:08:02.198Z,5.2
2018-01-25T06:09:12.180Z,5.15
2018-01-25T06:10:22.162Z,5.18
2018-01-25T06:11:31.891Z,5.22
2018-01-25T06:12:41.357Z,5.16
2018-01-25T06:13:51.080Z,5.22
2018-01-25T06:15:01.067Z,5.22
2018-01-25T06:16:10.802Z,5.13
2018-01-25T06:17:20.260Z,5.18
2018-01-25T06:18:29.712Z,5.2
2018-01-25T06:19:39.697Z,5.19
2018-01-25T06:20:49.415Z,5.12
2018-01-25T06:21:59.130Z,5.2
2018-01-25T06:23:09.116Z,5.12
2018-01-25T06:24:18.836Z,5.13
2018-01-25T06:25:28.823Z,5.15
2018-01-25T06:26:38.279Z,5.12
2018-01-25T06:27:48.346Z,5.15
2018-01-25T06:28:58.169Z,5.16
2018-01-25T06:30:07.901Z,5.28
2018-01-25T06:31:17.354Z,5.18
2018-01-25T06:32:27.349Z,5.13
2018-01-25T06:33:37.332Z,5.08
2018-01-25T06:34:47.051Z,5.13
2018-01-25T06:35:57.042Z,5.15
2018-01-25T06:37:06.770Z,5.08
2018-01-25T06:38:16.495Z,5.07
2018-01-25T06:39:26.214Z,5.19
2018-01-25T06:40:35.665Z,5.28
2018-01-25T06:41:45.651Z,5.25
2018-01-25T06:42:55.746Z,5.22
2018-01-25T06:44:05.205Z,5.28
2018-01-25T06:45:14.937Z,5.25
2018-01-25T06:46:24.662Z,5.2
2018-01-25T06:47:34.645Z,5.22
2018-01-25T06:48:44.367Z,5.18
2018-01-25T06:49:54.094Z,5.23
2018-01-25T06:51:03.875Z,5.19
2018-01-25T06:52:13.388Z,5.15
2018-01-25T06:53:22.579Z,5.07
2018-01-25T06:54:32.577Z,5.01
2018-01-25T06:55:42.562Z,5.01
2018-01-25T06:56:52.282Z,4.97
2018-01-25T06:58:02.027Z,4.94
2018-01-25T06:59:10.954Z,5.05
2018-01-25T07:00:20.936Z,5.02
2018-01-25T07:01:30.929Z,5.02
2018-01-25T07:02:40.911Z,4.92
2018-01-25T07:03:50.894Z,4.79
2018-01-25T07:05:00.614Z,4.86
2018-01-25T07:06:09.810Z,4.86
2018-01-25T07:07:19.263Z,4.84
2018-01-25T07:08:28.989Z,4.79
2018-01-25T07:09:38.710Z,4.86
2018-01-25T07:10:48.431Z,4.86
2018-01-25T07:11:58.420Z,4.84
2018-01-25T07:13:08.411Z,4.86
2018-01-25T07:14:17.868Z,4.79
2018-01-25T07:15:27.587Z,4.82
2018-01-25T07:16:37.569Z,4.84
2018-01-25T07:17:47.027Z,4.83
2018-01-25T07:18:57.026Z,4.82
2018-01-25T07:20:06.749Z,4.83
2018-01-25T07:21:15.937Z,4.68
2018-01-25T07:22:25.419Z,4.74
2018-01-25T07:23:35.152Z,4.67
2018-01-25T07:24:45.138Z,4.71
2018-01-25T07:25:55.124Z,4.7
2018-01-25T07:27:04.942Z,4.87
2018-01-25T07:28:14.667Z,5
2018-01-25T07:29:24.652Z,5.02
2018-01-25T07:30:34.381Z,4.97
2018-01-25T07:31:44.362Z,4.98
2018-01-25T07:32:54.081Z,5.01
2018-01-25T07:34:04.070Z,4.97
2018-01-25T07:35:13.545Z,5.01
2018-01-25T07:36:23.534Z,4.98
2018-01-25T07:37:33.515Z,4.92
2018-01-25T07:38:43.235Z,4.87
2018-01-25T07:39:52.960Z,4.94
2018-01-25T07:41:02.429Z,4.92
2018-01-25T07:42:11.897Z,4.92
2018-01-25T07:43:21.894Z,4.84
2018-01-25T07:44:31.880Z,4.83
2018-01-25T07:45:41.340Z,4.78
2018-01-25T07:46:51.062Z,4.84
2018-01-25T07:48:00.787Z,4.76
2018-01-25T07:49:10.247Z,4.79
2018-01-25T07:50:19.699Z,4.75
2018-01-25T07:51:29.685Z,4.75
2018-01-25T07:52:39.674Z,4.78
2018-01-25T07:53:49.662Z,4.74
2018-01-25T07:54:59.378Z,4.74
2018-01-25T07:56:09.166Z,4.64
2018-01-25T07:57:18.893Z,4.66
2018-01-25T07:58:41.351Z,4.71
2018-01-25T07:59:51.073Z,4.63
2018-01-25T08:01:01.060Z,4.52
2018-01-25T08:02:10.832Z,4.53
2018-01-25T08:03:20.562Z,4.67
2018-01-25T08:04:30.550Z,4.64
2018-01-25T08:05:40.534Z,4.71
2018-01-25T08:06:53.928Z,4.64
2018-01-25T08:08:03.911Z,4.64
2018-01-25T08:09:13.367Z,4.61
2018-01-25T08:10:22.820Z,4.68
2018-01-25T08:11:32.273Z,4.61
2018-01-25T08:12:41.778Z,4.68
2018-01-25T08:13:51.766Z,4.7
2018-01-25T08:15:01.759Z,4.66
2018-01-25T08:16:11.479Z,4.75
2018-01-25T08:17:20.992Z,4.78
2018-01-25T08:18:30.975Z,4.74
2018-01-25T08:19:40.435Z,4.75
2018-01-25T08:20:50.160Z,4.76
2018-01-25T08:22:00.146Z,4.67
2018-01-25T08:23:09.863Z,4.75
2018-01-25T08:24:19.468Z,4.57
2018-01-25T08:25:29.460Z,4.6
2018-01-25T08:26:38.922Z,4.61
2018-01-25T08:27:48.643Z,4.61
2018-01-25T08:28:58.366Z,4.63
2018-01-25T08:30:08.195Z,4.56
2018-01-25T08:31:17.918Z,4.67
2018-01-25T08:32:27.956Z,4.66
2018-01-25T08:33:37.942Z,4.76
2018-01-25T08:34:47.670Z,4.66
2018-01-25T08:35:57.707Z,4.78
2018-01-25T08:37:07.744Z,4.78
2018-01-25T08:38:16.937Z,4.75
2018-01-25T08:39:26.659Z,4.76
2018-01-25T08:40:36.379Z,4.76
2018-01-25T08:41:46.749Z,4.76
2018-01-25T08:42:56.534Z,4.83
2018-01-25T08:44:06.539Z,4.86
2018-01-25T08:45:16.541Z,4.9
2018-01-25T08:46:25.733Z,4.89
2018-01-25T08:47:35.452Z,4.98
2018-01-25T08:48:45.439Z,4.98
2018-01-25T08:49:55.157Z,4.97
2018-01-25T08:51:04.880Z,4.94
2018-01-25T08:52:14.862Z,4.92
2018-01-25T08:53:24.848Z,4.94
2018-01-25T08:54:34.574Z,4.86
2018-01-25T08:55:44.295Z,4.92
2018-01-25T08:56:54.279Z,4.94
2018-01-25T08:58:04.270Z,4.98
2018-01-25T08:59:13.740Z,4.94
2018-01-25T09:00:23.533Z,4.95
2018-01-25T09:01:32.719Z,4.94
2018-01-25T09:02:42.442Z,4.9
2018-01-25T09:03:52.423Z,4.92
2018-01-25T09:05:02.197Z,4.98
2018-01-25T09:06:11.916Z,5.04
2018-01-25T09:07:21.640Z,5.02
2018-01-25T09:08:31.674Z,5.01
2018-01-25T09:09:41.130Z,5.01
2018-01-25T09:10:51.124Z,5.16
2018-01-25T09:12:00.846Z,5.16
2018-01-25T09:13:10.044Z,5.2
2018-01-25T09:14:19.764Z,5.26
2018-01-25T09:15:29.486Z,5.25
2018-01-25T09:16:39.204Z,5.25
2018-01-25T09:17:48.656Z,5.2
2018-01-25T09:18:58.647Z,5.19
2018-01-25T09:20:08.367Z,5.2
2018-01-25T09:21:18.233Z,5.28
2018-01-25T09:22:27.802Z,5.25
2018-01-25T09:23:37.524Z,5.22
2018-01-25T09:24:47.514Z,5.28
2018-01-25T09:25:57.504Z,5.33
2018-01-25T09:27:07.492Z,5.33
2018-01-25T09:28:17.219Z,5.46
2018-01-25T09:29:27.214Z,5.37
2018-01-25T09:30:37.198Z,5.49
2018-01-25T09:31:46.920Z,5.47
2018-01-25T09:32:56.374Z,5.51
2018-01-25T09:34:05.829Z,5.51
2018-01-25T09:35:15.808Z,5.61
2018-01-25T09:36:25.793Z,5.65
2018-01-25T09:37:35.517Z,5.73
2018-01-25T09:38:45.508Z,5.65
2018-01-25T09:39:54.971Z,5.77
2018-01-25T09:41:04.706Z,5.8
2018-01-25T09:42:14.160Z,5.84
2018-01-25T09:43:24.231Z,5.81
2018-01-25T09:44:33.742Z,5.81
2018-01-25T09:45:43.872Z,5.8
2018-01-25T09:46:53.599Z,5.84
2018-01-25T09:48:03.583Z,5.95
2018-01-25T09:49:13.380Z,5.9
2018-01-25T09:50:23.372Z,5.88
2018-01-25T09:51:33.156Z,5.87
2018-01-25T09:52:43.210Z,5.94
2018-01-25T09:53:53.210Z,5.94
2018-01-25T09:55:03.280Z,5.9
2018-01-25T09:56:12.398Z,5.94
2018-01-25T09:57:22.120Z,5.95
2018-01-25T09:58:32.116Z,5.99
2018-01-25T09:59:42.171Z,6.07
2018-01-25T10:00:51.947Z,6.05
2018-01-25T10:02:01.711Z,5.99
2018-01-25T10:03:11.694Z,6.12
2018-01-25T10:04:21.152Z,6.01
2018-01-25T10:05:30.606Z,6.06
2018-01-25T10:06:40.328Z,6.09
2018-01-25T10:07:50.056Z,5.92
2018-01-25T10:08:59.936Z,6.01
2018-01-25T10:10:09.397Z,6.02
2018-01-25T10:11:19.188Z,6.02
2018-01-25T10:12:29.202Z,5.99
2018-01-25T10:13:38.937Z,6.06
2018-01-25T10:14:48.929Z,6.07
2018-01-25T10:15:58.669Z,6.01
2018-01-25T10:17:08.125Z,6.05
2018-01-25T10:18:18.116Z,6.02
2018-01-25T10:19:28.099Z,6.06
2018-01-25T10:20:37.870Z,6.07
2018-01-25T10:21:47.868Z,6.06
2018-01-25T10:22:57.852Z,6.06
2018-01-25T10:24:07.308Z,6.12
2018-01-25T10:25:17.300Z,6.1
2018-01-25T10:26:26.762Z,6.07
2018-01-25T10:27:36.221Z,5.98
2018-01-25T10:28:45.942Z,6.12
2018-01-25T10:29:55.663Z,6.07
2018-01-25T10:31:05.724Z,6.07
2018-01-25T10:32:15.281Z,6.1
2018-01-25T10:33:24.477Z,6.13
2018-01-25T10:34:34.468Z,6.12
2018-01-25T10:35:44.462Z,6.01
2018-01-25T10:36:54.507Z,6.12
2018-01-25T10:38:04.492Z,6.13
2018-01-25T10:39:14.537Z,6.12
2018-01-25T10:40:24.539Z,6.12
2018-01-25T10:41:34.581Z,6.09
2018-01-25T10:42:44.046Z,6.16
2018-01-25T10:43:53.504Z,6.16
2018-01-25T10:45:03.227Z,6.22
2018-01-25T10:46:12.724Z,6.15
2018-01-25T10:47:22.190Z,6.19
2018-01-25T10:48:32.175Z,6.28
2018-01-25T10:49:41.898Z,6.25
2018-01-25T10:50:51.885Z,6.16
2018-01-25T10:52:01.873Z,6.17
2018-01-25T10:53:11.934Z,6.22
2018-01-25T10:54:21.657Z,6.26
2018-01-25T10:55:31.381Z,6.39
2018-01-25T10:56:41.106Z,6.35
2018-01-25T10:57:51.092Z,6.36
2018-01-25T10:59:01.078Z,6.41
2018-01-25T11:00:10.800Z,6.44
2018-01-25T11:01:20.526Z,6.38
2018-01-25T11:02:30.251Z,6.41
2018-01-25T11:03:40.250Z,6.43
2018-01-25T11:04:50.241Z,6.41
2018-01-25T11:05:59.962Z,6.39
2018-01-25T11:07:09.686Z,6.38
2018-01-25T11:08:19.289Z,6.34
2018-01-25T11:09:29.216Z,6.38
2018-01-25T11:10:39.209Z,6.26
2018-01-25T11:11:48.679Z,6.25
2018-01-25T11:12:58.450Z,6.22
2018-01-25T11:14:08.447Z,6.13
2018-01-25T11:15:18.168Z,6.07
2018-01-25T11:16:27.892Z,6.09
2018-01-25T11:17:37.613Z,6.1
2018-01-25T11:18:47.389Z,6.06
2018-01-25T11:19:57.373Z,6.09
2018-01-25T11:21:07.095Z,6.01
2018-01-25T11:22:16.819Z,5.99
2018-01-25T11:23:26.808Z,6.01
2018-01-25T11:24:36.801Z,5.9
2018-01-25T11:25:46.529Z,5.92
2018-01-25T11:26:55.986Z,5.81
2018-01-25T11:28:05.709Z,5.92
2018-01-25T11:29:15.166Z,5.91
2018-01-25T11:30:25.152Z,5.84
2018-01-25T11:31:34.874Z,5.77
2018-01-25T11:32:44.959Z,5.72
2018-01-25T11:33:54.962Z,5.72
2018-01-25T11:35:04.688Z,5.76
2018-01-25T11:36:14.409Z,5.73
2018-01-25T11:37:24.153Z,5.7
2018-01-25T11:38:33.891Z,5.65
2018-01-25T11:39:43.880Z,5.61
2018-01-25T11:40:53.871Z,5.58
2018-01-25T11:42:03.859Z,5.54
2018-01-25T11:43:13.599Z,5.61
2018-01-25T11:44:23.324Z,5.59
2018-01-25T11:45:33.320Z,5.61
2018-01-25T11:46:43.308Z,5.55
2018-01-25T11:47:52.773Z,5.59
2018-01-25T11:49:02.770Z,5.58
2018-01-25T11:50:12.756Z,5.58
2018-01-25T11:51:22.477Z,5.55
2018-01-25T11:52:32.237Z,5.49
2018-01-25T11:53:41.961Z,5.51
2018-01-25T11:54:51.943Z,5.46
2018-01-25T11:56:01.928Z,5.46
2018-01-25T11:57:11.124Z,5.49
2018-01-25T11:58:20.849Z,5.4
2018-01-25T11:59:30.841Z,5.43
2018-01-25T12:00:40.564Z,5.36
2018-01-25T12:01:50.550Z,5.37
2018-01-25T12:03:00.786Z,5.33
2018-01-25T12:04:11.011Z,5.37
2018-01-25T12:05:21.021Z,5.29
2018-01-25T12:06:30.741Z,5.34
2018-01-25T12:07:40.465Z,5.33
2018-01-25T12:08:49.923Z,5.36
2018-01-25T12:09:59.912Z,5.37
2018-01-25T12:11:09.634Z,5.36
2018-01-25T12:12:19.355Z,5.37
2018-01-25T12:13:29.076Z,5.36
2018-01-25T12:14:39.062Z,5.25
2018-01-25T12:15:48.783Z,5.38
2018-01-25T12:16:58.768Z,5.38
2018-01-25T12:18:08.486Z,5.33
2018-01-25T12:19:17.679Z,5.31
2018-01-25T12:20:27.667Z,5.36
2018-01-25T12:21:37.391Z,5.33
2018-01-25T12:22:47.437Z,5.43
2018-01-25T12:23:56.891Z,5.33
2018-01-25T12:25:06.616Z,5.38
2018-01-25T12:26:15.806Z,5.4
2018-01-25T12:27:25.791Z,5.38
2018-01-25T12:28:35.838Z,5.37
2018-01-25T12:29:45.828Z,5.29
2018-01-25T12:30:55.817Z,5.28
2018-01-25T12:32:05.271Z,5.31
2018-01-25T12:33:14.994Z,5.2
2018-01-25T12:34:25.018Z,5.13
2018-01-25T12:35:34.475Z,5.12
2018-01-25T12:36:44.469Z,5.05
2018-01-25T12:37:54.191Z,5.07
2018-01-25T12:39:04.176Z,5.02
2018-01-25T12:40:13.898Z,5.04
2018-01-25T12:41:23.888Z,5.02
2018-01-25T12:42:33.612Z,4.86
2018-01-25T12:43:43.337Z,4.82
2018-01-25T12:44:53.323Z,4.83
2018-01-25T12:46:03.041Z,4.79
2018-01-25T12:47:12.859Z,4.79
2018-01-25T12:48:22.846Z,4.79
2018-01-25T12:49:32.578Z,4.84
2018-01-25T12:50:42.565Z,4.86
2018-01-25T12:51:52.430Z,4.92
2018-01-25T12:53:02.158Z,4.83
2018-01-25T12:54:12.150Z,4.9
2018-01-25T12:55:21.872Z,4.97
2018-01-25T12:56:31.865Z,4.9
2018-01-25T12:57:41.592Z,4.87
2018-01-25T12:58:51.315Z,4.78
2018-01-25T13:00:01.040Z,4.79
2018-01-25T13:01:11.057Z,4.76
2018-01-25T13:02:20.775Z,4.75
2018-01-25T13:03:30.765Z,4.76
2018-01-25T13:04:40.746Z,4.75
2018-01-25T13:05:50.470Z,4.78
2018-01-25T13:07:00.201Z,4.75
2018-01-25T13:08:09.924Z,4.67
2018-01-25T13:09:19.378Z,4.75
2018-01-25T13:10:28.831Z,4.74
2018-01-25T13:11:38.811Z,4.76
2018-01-25T13:12:48.798Z,4.71
2018-01-25T13:13:58.534Z,4.68
2018-01-25T13:15:08.254Z,4.64
2018-01-25T13:16:17.974Z,4.68
2018-01-25T13:17:27.965Z,4.64
2018-01-25T13:18:37.684Z,4.7
2018-01-25T13:19:47.668Z,4.61
2018-01-25T13:20:57.530Z,4.6
2018-01-25T13:22:06.982Z,4.57
2018-01-25T13:23:16.442Z,4.49
2018-01-25T13:24:26.160Z,4.52
2018-01-25T13:25:36.154Z,4.46
2018-01-25T13:26:45.610Z,4.52
2018-01-25T13:27:55.391Z,4.4
2018-01-25T13:29:05.115Z,4.42
2018-01-25T13:30:14.891Z,4.53
2018-01-25T13:31:24.618Z,4.48
2018-01-25T13:32:34.653Z,4.5
2018-01-25T13:33:44.709Z,4.42
2018-01-25T13:34:54.434Z,4.56
2018-01-25T13:36:04.420Z,4.48
2018-01-25T13:37:13.611Z,4.4
2018-01-25T13:38:23.348Z,4.34
2018-01-25T13:39:33.337Z,4.39
2018-01-25T13:40:43.058Z,4.46
2018-01-25T13:41:52.787Z,4.43
2018-01-25T13:43:02.778Z,4.5
2018-01-25T13:44:12.550Z,4.4
2018-01-25T13:45:22.544Z,4.49
2018-01-25T13:46:32.547Z,4.49
2018-01-25T13:47:42.529Z,4.5
2018-01-25T13:48:52.265Z,4.42
2018-01-25T13:50:01.824Z,4.4
2018-01-25T13:51:11.275Z,4.4
2018-01-25T13:52:20.729Z,4.32
2018-01-25T13:53:30.711Z,4.32
2018-01-25T13:54:40.695Z,4.42
2018-01-25T13:55:50.679Z,4.48
2018-01-25T13:57:00.406Z,4.4
2018-01-25T13:58:10.131Z,4.43
2018-01-25T13:59:20.121Z,4.45
2018-01-25T14:00:30.114Z,4.46
2018-01-25T14:01:39.834Z,4.4
2018-01-25T14:02:49.549Z,4.42
2018-01-25T14:03:59.283Z,4.4
2018-01-25T14:05:09.294Z,4.53
2018-01-25T14:06:19.019Z,4.48
2018-01-25T14:07:28.750Z,4.52
2018-01-25T14:08:38.732Z,4.34
2018-01-25T14:09:48.745Z,4.52
2018-01-25T14:10:58.211Z,4.46
2018-01-25T14:12:08.212Z,4.43
2018-01-25T14:13:17.718Z,4.52
2018-01-25T14:14:27.436Z,4.43
2018-01-25T14:15:37.152Z,4.49
2018-01-25T14:16:46.870Z,4.49
2018-01-25T14:17:56.854Z,4.49
2018-01-25T14:19:06.313Z,4.56
2018-01-25T14:20:15.812Z,4.42
2018-01-25T14:21:25.542Z,4.39
2018-01-25T14:22:35.535Z,4.46
2018-01-25T14:23:45.761Z,4.56
2018-01-25T14:24:55.492Z,4.53
2018-01-25T14:26:05.521Z,4.48
2018-01-25T14:27:15.238Z,4.45
2018-01-25T14:28:25.225Z,4.5
2018-01-25T14:29:34.940Z,4.42
2018-01-25T14:30:44.979Z,4.5
2018-01-25T14:31:54.696Z,4.52
2018-01-25T14:33:04.420Z,4.45
2018-01-25T14:34:14.137Z,4.45
2018-01-25T14:35:23.863Z,4.42
2018-01-25T14:36:33.844Z,4.45
2018-01-25T14:37:43.299Z,4.38
2018-01-25T14:38:53.279Z,4.31
2018-01-25T14:40:02.733Z,4.3
2018-01-25T14:41:12.454Z,4.24
2018-01-25T14:42:22.183Z,4.2
2018-01-25T14:43:32.168Z,4.22
2018-01-25T14:44:42.149Z,4.28
2018-01-25T14:45:51.871Z,4.21
2018-01-25T14:47:01.856Z,4.14
2018-01-25T14:48:11.582Z,4.2
2018-01-25T14:49:21.038Z,4.28
2018-01-25T14:50:31.025Z,4.25
2018-01-25T14:51:41.013Z,4.28
2018-01-25T14:52:50.468Z,4.09
2018-01-25T14:54:00.456Z,4.07
2018-01-25T14:55:10.452Z,4.12
2018-01-25T14:56:20.165Z,4.14
2018-01-25T14:57:29.619Z,4.18
2018-01-25T14:58:39.605Z,4.28
2018-01-25T14:59:49.591Z,4.3
2018-01-25T15:00:59.319Z,4.32
2018-01-25T15:02:09.038Z,4.42
2018-01-25T15:03:18.493Z,4.36
2018-01-25T15:04:28.407Z,4.3
2018-01-25T15:05:38.636Z,4.28
2018-01-25T15:06:48.360Z,4.16
2018-01-25T15:07:58.079Z,4.24
2018-01-25T15:09:08.059Z,4.25
2018-01-25T15:10:17.519Z,4.25
2018-01-25T15:11:26.806Z,4.18
2018-01-25T15:12:36.523Z,4.3
2018-01-25T15:13:46.514Z,4.3
2018-01-25T15:14:56.498Z,4.3
2018-01-25T15:16:06.483Z,4.25
2018-01-25T15:17:16.394Z,4.22
2018-01-25T15:18:26.379Z,4.3
2018-01-25T15:19:35.892Z,4.18
2018-01-25T15:20:45.877Z,4.21
2018-01-25T15:21:55.852Z,4.13
2018-01-25T15:23:05.910Z,4.04
2018-01-25T15:24:15.894Z,4.04
2018-01-25T15:25:25.879Z,4.12
2018-01-25T15:26:35.863Z,4.1
2018-01-25T15:27:45.316Z,4.04
2018-01-25T15:28:55.405Z,4.06
2018-01-25T15:30:05.395Z,4.03
2018-01-25T15:31:15.116Z,4.07
2018-01-25T15:32:25.095Z,4.03
2018-01-25T15:33:35.099Z,4.03
2018-01-25T15:34:44.979Z,3.95
2018-01-25T15:35:54.750Z,4
2018-01-25T15:37:04.493Z,3.94
2018-01-25T15:38:14.219Z,3.99